Map

Track Data

SID SEASON NUMBER BASIN SUBBASIN NAME ISO_TIME NATURE LAT LON WMO_WIND WMO_PRES WMO_AGENCY TRACK_TYPE DIST2LAND LANDFALL IFLAG USA_AGENCY USA_ATCF_ID USA_LAT USA_LON USA_RECORD USA_STATUS USA_WIND USA_PRES USA_SSHS USA_R34_NE USA_R34_SE USA_R34_SW USA_R34_NW USA_R50_NE USA_R50_SE USA_R50_SW USA_R50_NW USA_R64_NE USA_R64_SE USA_R64_SW USA_R64_NW USA_POCI USA_ROCI USA_RMW USA_EYE TOKYO_LAT TOKYO_LON TOKYO_GRADE TOKYO_WIND TOKYO_PRES TOKYO_R50_DIR TOKYO_R50_LONG TOKYO_R50_SHORT TOKYO_R30_DIR TOKYO_R30_LONG TOKYO_R30_SHORT TOKYO_LAND CMA_LAT CMA_LON CMA_CAT CMA_WIND CMA_PRES HKO_LAT HKO_LON HKO_CAT HKO_WIND HKO_PRES NEWDELHI_LAT NEWDELHI_LON NEWDELHI_GRADE NEWDELHI_WIND NEWDELHI_PRES NEWDELHI_CI NEWDELHI_DP NEWDELHI_POCI REUNION_LAT REUNION_LON REUNION_TYPE REUNION_WIND REUNION_PRES REUNION_TNUM REUNION_CI REUNION_RMW REUNION_R34_NE REUNION_R34_SE REUNION_R34_SW REUNION_R34_NW REUNION_R50_NE REUNION_R50_SE REUNION_R50_SW REUNION_R50_NW REUNION_R64_NE REUNION_R64_SE REUNION_R64_SW REUNION_R64_NW BOM_LAT BOM_LON BOM_TYPE BOM_WIND BOM_PRES BOM_TNUM BOM_CI BOM_RMW BOM_R34_NE BOM_R34_SE BOM_R34_SW BOM_R34_NW BOM_R50_NE BOM_R50_SE BOM_R50_SW BOM_R50_NW BOM_R64_NE BOM_R64_SE BOM_R64_SW BOM_R64_NW BOM_ROCI BOM_POCI BOM_EYE BOM_POS_METHOD BOM_PRES_METHOD NADI_LAT NADI_LON NADI_CAT NADI_WIND NADI_PRES WELLINGTON_LAT WELLINGTON_LON WELLINGTON_WIND WELLINGTON_PRES DS824_LAT DS824_LON DS824_STAGE DS824_WIND DS824_PRES TD9636_LAT TD9636_LON TD9636_STAGE TD9636_WIND TD9636_PRES TD9635_LAT TD9635_LON TD9635_WIND TD9635_PRES TD9635_ROCI NEUMANN_LAT NEUMANN_LON NEUMANN_CLASS NEUMANN_WIND NEUMANN_PRES MLC_LAT MLC_LON MLC_CLASS MLC_WIND MLC_PRES USA_GUST BOM_GUST BOM_GUST_PER REUNION_GUST REUNION_GUST_PER USA_SEAHGT USA_SEARAD_NE USA_SEARAD_SE USA_SEARAD_SW USA_SEARAD_NW STORM_SPEED STORM_DIR
1886280N15127 1886 38 WP MM NOT_NAMED 1886-10-06 16:00:00 NR 15.1000 127.000 main 310 306 __________O___ -1 15.1000 127.000 7 3 317
1886280N15127 1886 38 WP MM NOT_NAMED 1886-10-06 18:00:00 NR 15.1816 126.922 main 306 302 __________P___ -1 15.1816 126.922 7 3 317
1886280N15127 1886 38 WP MM NOT_NAMED 1886-10-06 21:00:00 NR 15.3109 126.796 main 302 296 __________P___ -1 15.3109 126.796 7 4 316
1886280N15127 1886 38 WP MM NOT_NAMED 1886-10-07 00:00:00 NR 15.4579 126.649 main 296 295 __________P___ -1 15.4579 126.649 7 5 316
1886280N15127 1886 38 WP MM NOT_NAMED 1886-10-07 03:00:00 NR 15.6334 126.469 main 295 294 __________P___ -1 15.6334 126.469 7 5 315
1886280N15127 1886 38 WP MM NOT_NAMED 1886-10-07 04:00:00 NR 15.7000 126.400 main 294 286 __________O___ -1 15.7000 126.400 7 6 315
1886280N15127 1886 38 WP MM NOT_NAMED 1886-10-07 06:00:00 NR 15.8465 126.245 main 286 287 __________P___ -1 15.8465 126.245 7 7 314
1886280N15127 1886 38 WP MM NOT_NAMED 1886-10-07 09:00:00 NR 16.0915 125.982 main 297 291 __________P___ -1 16.0915 125.982 7 7 314
1886280N15127 1886 38 WP MM NOT_NAMED 1886-10-07 12:00:00 NR 16.3529 125.694 main 307 302 __________P___ -1 16.3529 125.694 7 8 313
1886280N15127 1886 38 WP MM NOT_NAMED 1886-10-07 15:00:00 NR 16.6151 125.398 main 310 298 __________P___ -1 16.6151 125.398 7 8 313
1886280N15127 1886 38 WP MM NOT_NAMED 1886-10-07 16:00:00 NR 16.7000 125.300 main 298 276 __________O___ -1 16.7000 125.300 7 7 313
1886280N15127 1886 38 WP MM NOT_NAMED 1886-10-07 18:00:00 NR 16.8635 125.117 main 276 244 __________P___ -1 16.8635 125.117 7 7 312
1886280N15127 1886 38 WP MM NOT_NAMED 1886-10-07 21:00:00 NR 17.1027 124.842 main 244 225 __________P___ -1 17.1027 124.842 7 7 312
1886280N15127 1886 38 WP MM NOT_NAMED 1886-10-08 00:00:00 NR 17.3290 124.567 main 225 199 __________P___ -1 17.3290 124.567 7 7 310
1886280N15127 1886 38 WP MM NOT_NAMED 1886-10-08 03:00:00 NR 17.5362 124.292 main 199 192 __________P___ -1 17.5362 124.292 7 7 308
1886280N15127 1886 38 WP MM NOT_NAMED 1886-10-08 04:00:00 NR 17.6000 124.200 main 192 175 __________O___ -1 17.6000 124.200 7 6 305
1886280N15127 1886 38 WP MM NOT_NAMED 1886-10-08 06:00:00 NR 17.7170 124.016 main 175 153 __________P___ -1 17.7170 124.016 7 6 302
1886280N15127 1886 38 WP MM NOT_NAMED 1886-10-08 09:00:00 NR 17.8737 123.741 main 153 131 __________P___ -1 17.8737 123.741 7 6 300
1886280N15127 1886 38 WP MM NOT_NAMED 1886-10-08 12:00:00 NR 18.0162 123.466 main 131 95 __________P___ -1 18.0162 123.466 7 6 298
1886280N15127 1886 38 WP MM NOT_NAMED 1886-10-08 15:00:00 NR 18.1536 123.192 main 95 85 __________P___ -1 18.1536 123.192 7 6 298
1886280N15127 1886 38 WP MM NOT_NAMED 1886-10-08 16:00:00 NR 18.2000 123.100 main 85 63 __________O___ -1 18.2000 123.100 7 6 301
1886280N15127 1886 38 WP MM NOT_NAMED 1886-10-08 18:00:00 NR 18.3104 122.914 main 63 33 __________P___ -1 18.3104 122.914 7 6 302
1886280N15127 1886 38 WP MM NOT_NAMED 1886-10-08 21:00:00 NR 18.4764 122.635 main 33 23 __________P___ -1 18.4764 122.635 7 6 301
1886280N15127 1886 38 WP MM NOT_NAMED 1886-10-09 00:00:00 NR 18.6315 122.359 main 24 22 __________P___ -1 18.6315 122.359 7 6 299
1886280N15127 1886 38 WP MM NOT_NAMED 1886-10-09 03:00:00 NR 18.7634 122.088 main 44 44 __________P___ -1 18.7634 122.088 7 6 296
1886280N15127 1886 38 WP MM NOT_NAMED 1886-10-09 04:00:00 NR 18.8000 122.000 main 45 45 __________O___ -1 18.8000 122.000 7 5 291
1886280N15127 1886 38 WP MM NOT_NAMED 1886-10-09 06:00:00 NR 18.8587 121.830 main 59 49 __________P___ -1 18.8587 121.830 7 5 287
1886280N15127 1886 38 WP MM NOT_NAMED 1886-10-09 09:00:00 NR 18.9216 121.582 main 49 44 __________P___ -1 18.9216 121.582 7 5 283
1886280N15127 1886 38 WP MM NOT_NAMED 1886-10-09 12:00:00 NR 18.9627 121.336 main 55 49 __________P___ -1 18.9627 121.336 7 5 278
1886280N15127 1886 38 WP MM NOT_NAMED 1886-10-09 15:00:00 NR 18.9915 121.085 main 49 45 __________P___ -1 18.9915 121.085 7 5 277
1886280N15127 1886 38 WP MM NOT_NAMED 1886-10-09 16:00:00 NR 19.0000 121.000 main 45 44 __________O___ -1 19.0000 121.000 7 5 277
1886280N15127 1886 38 WP MM NOT_NAMED 1886-10-09 18:00:00 NR 19.0224 120.814 main 44 44 __________P___ -1 19.0224 120.814 7 5 276
1886280N15127 1886 38 WP MM NOT_NAMED 1886-10-09 21:00:00 NR 19.0497 120.530 main 54 64 __________P___ -1 19.0497 120.530 7 5 275
1886280N15127 1886 38 WP MM NOT_NAMED 1886-10-10 00:00:00 NR 19.0722 120.248 main 84 84 __________P___ -1 19.0722 120.248 7 5 275
1886280N15127 1886 38 WP MM NOT_NAMED 1886-10-10 03:00:00 NR 19.0929 119.983 main 100 100 __________P___ -1 19.0929 119.983 7 5 275
1886280N15127 1886 38 WP MM NOT_NAMED 1886-10-10 04:00:00 NR 19.1000 119.900 main 107 107 __________O___ -1 19.1000 119.900 7 4 277
1886280N15127 1886 38 WP MM NOT_NAMED 1886-10-10 06:00:00 NR 19.1192 119.747 main 122 122 __________P___ -1 19.1192 119.747 7 4 278
1886280N15127 1886 38 WP MM NOT_NAMED 1886-10-10 09:00:00 NR 19.1481 119.536 main 139 139 __________P___ -1 19.1481 119.536 7 4 278
1886280N15127 1886 38 WP MM NOT_NAMED 1886-10-10 12:00:00 NR 19.1744 119.342 main 163 163 __________P___ -1 19.1744 119.342 7 4 278
1886280N15127 1886 38 WP MM NOT_NAMED 1886-10-10 15:00:00 NR 19.1950 119.160 main 172 181 __________P___ -1 19.1950 119.160 7 3 276
1886280N15127 1886 38 WP MM NOT_NAMED 1886-10-10 16:00:00 NR 19.2000 119.100 main 181 181 __________O___ -1 19.2000 119.100 7 3 275
1886280N15127 1886 38 WP MM NOT_NAMED 1886-10-10 18:00:00 NR 19.2083 118.980 main 190 190 __________P___ -1 19.2083 118.980 7 3 273
1886280N15127 1886 38 WP MM NOT_NAMED 1886-10-10 21:00:00 NR 19.2144 118.807 main 209 209 __________P___ -1 19.2144 118.807 7 3 271
1886280N15127 1886 38 WP MM NOT_NAMED 1886-10-11 00:00:00 NR 19.2132 118.636 main 228 228 __________P___ -1 19.2132 118.636 7 3 268
1886280N15127 1886 38 WP MM NOT_NAMED 1886-10-11 03:00:00 NR 19.2045 118.460 main 238 238 __________P___ -1 19.2045 118.460 7 3 267
1886280N15127 1886 38 WP MM NOT_NAMED 1886-10-11 04:00:00 NR 19.2000 118.400 main 248 248 __________O___ -1 19.2000 118.400 7 4 264
1886280N15127 1886 38 WP MM NOT_NAMED 1886-10-11 06:00:00 NR 19.1864 118.270 main 258 258 __________P___ -1 19.1864 118.270 7 4 263
1886280N15127 1886 38 WP MM NOT_NAMED 1886-10-11 09:00:00 NR 19.1597 118.068 main 277 277 __________P___ -1 19.1597 118.068 7 4 262
1886280N15127 1886 38 WP MM NOT_NAMED 1886-10-11 12:00:00 NR 19.1309 117.864 main 294 294 __________P___ -1 19.1309 117.864 7 4 262
1886280N15127 1886 38 WP MM NOT_NAMED 1886-10-11 15:00:00 NR 19.1062 117.665 main 315 315 __________P___ -1 19.1062 117.665 7 4 263
1886280N15127 1886 38 WP MM NOT_NAMED 1886-10-11 16:00:00 NR 19.1000 117.600 main 325 325 __________O___ -1 19.1000 117.600 7 3 267
1886280N15127 1886 38 WP MM NOT_NAMED 1886-10-11 18:00:00 NR 19.0968 117.486 main 335 335 __________P___ -1 19.0968 117.486 7 3 270
1886280N15127 1886 38 WP MM NOT_NAMED 1886-10-11 21:00:00 NR 19.0984 117.320 main 355 355 __________P___ -1 19.0984 117.320 7 3 271
1886280N15127 1886 38 WP MM NOT_NAMED 1886-10-12 00:00:00 NR 19.1022 117.152 main 365 375 __________P___ -1 19.1022 117.152 7 3 271
1886280N15127 1886 38 WP MM NOT_NAMED 1886-10-12 03:00:00 NR 19.1020 116.967 main 385 385 __________P___ -1 19.1020 116.967 7 4 269
1886280N15127 1886 38 WP MM NOT_NAMED 1886-10-12 04:00:00 NR 19.1000 116.900 main 395 395 __________O___ -1 19.1000 116.900 7 4 266
1886280N15127 1886 38 WP MM NOT_NAMED 1886-10-12 06:00:00 NR 19.0865 116.748 main 413 409 __________P___ -1 19.0865 116.748 7 5 264
1886280N15127 1886 38 WP MM NOT_NAMED 1886-10-12 09:00:00 NR 19.0598 116.501 main 409 407 __________P___ -1 19.0598 116.501 7 5 263
1886280N15127 1886 38 WP MM NOT_NAMED 1886-10-12 12:00:00 NR 19.0309 116.242 main 414 407 __________P___ -1 19.0309 116.242 7 5 264
1886280N15127 1886 38 WP MM NOT_NAMED 1886-10-12 15:00:00 NR 19.0062 115.984 main 407 404 __________P___ -1 19.0062 115.984 7 5 265
1886280N15127 1886 38 WP MM NOT_NAMED 1886-10-12 16:00:00 NR 19.0000 115.900 main 404 396 __________O___ -1 19.0000 115.900 7 4 268
1886280N15127 1886 38 WP MM NOT_NAMED 1886-10-12 18:00:00 NR 18.9968 115.750 main 396 389 __________P___ -1 18.9968 115.750 7 4 270
1886280N15127 1886 38 WP MM NOT_NAMED 1886-10-12 21:00:00 NR 18.9984 115.530 main 389 383 __________P___ -1 18.9984 115.530 7 4 271
1886280N15127 1886 38 WP MM NOT_NAMED 1886-10-13 00:00:00 NR 19.0022 115.310 main 383 378 __________P___ -1 19.0022 115.310 7 4 270
1886280N15127 1886 38 WP MM NOT_NAMED 1886-10-13 03:00:00 NR 19.0020 115.081 main 378 376 __________P___ -1 19.0020 115.081 7 4 270
1886280N15127 1886 38 WP MM NOT_NAMED 1886-10-13 04:00:00 NR 19.0000 115.000 main 376 372 __________O___ -1 19.0000 115.000 3 5 267
1886280N15127 1886 38 WP MM NOT_NAMED 1886-10-13 06:00:00 NR 18.9890 114.828 main 372 364 __________P___ -1 18.9890 114.828 3 5 265
1886280N15127 1886 38 WP MM NOT_NAMED 1886-10-13 09:00:00 NR 18.9663 114.558 main 364 355 __________P___ -1 18.9663 114.558 3 5 264
1886280N15127 1886 38 WP MM NOT_NAMED 1886-10-13 12:00:00 NR 18.9387 114.277 main 355 324 __________P___ -1 18.9387 114.277 3 5 264
1886280N15127 1886 38 WP MM NOT_NAMED 1886-10-13 15:00:00 NR 18.9095 113.994 main 324 314 __________P___ -1 18.9095 113.994 3 5 264
1886280N15127 1886 38 WP MM NOT_NAMED 1886-10-13 16:00:00 NR 18.9000 113.900 main 314 294 __________O___ -1 18.9000 113.900 4 5 264
1886280N15127 1886 38 WP MM NOT_NAMED 1886-10-13 18:00:00 NR 18.8856 113.740 main 294 273 __________P___ -1 18.8856 113.740 4 5 265
1886280N15127 1886 38 WP MM NOT_NAMED 1886-10-13 21:00:00 NR 18.8641 113.501 main 273 247 __________P___ -1 18.8641 113.501 4 5 265
1886280N15127 1886 38 WP MM NOT_NAMED 1886-10-14 00:00:00 NR 18.8403 113.238 main 247 218 __________P___ -1 18.8403 113.238 4 6 265
1886280N15127 1886 38 WP MM NOT_NAMED 1886-10-14 03:00:00 NR 18.8114 112.922 main 218 209 __________P___ -1 18.8114 112.922 4 6 264
1886280N15127 1886 38 WP MM NOT_NAMED 1886-10-14 04:00:00 NR 18.8000 112.800 main 209 181 __________O___ -1 18.8000 112.800 4 8 264
1886280N15127 1886 38 WP MM NOT_NAMED 1886-10-14 06:00:00 NR 18.7725 112.523 main 181 153 __________P___ -1 18.7725 112.523 4 9 264
1886280N15127 1886 38 WP MM NOT_NAMED 1886-10-14 09:00:00 NR 18.7248 112.051 main 153 100 __________P___ -1 18.7248 112.051 4 9 264
1886280N15127 1886 38 WP MM NOT_NAMED 1886-10-14 12:00:00 NR 18.6721 111.531 main 100 57 __________P___ -1 18.6721 111.531 4 10 264
1886280N15127 1886 38 WP MM NOT_NAMED 1886-10-14 15:00:00 NR 18.6179 110.984 main 57 38 __________P___ -1 18.6179 110.984 4 10 264
1886280N15127 1886 38 WP MM NOT_NAMED 1886-10-14 16:00:00 NR 18.6000 110.800 main 38 11 __________O___ -1 18.6000 110.800 4 11 264
1886280N15127 1886 38 WP MM NOT_NAMED 1886-10-14 18:00:00 NR 18.5652 110.432 main 11 0 __________P___ -1 18.5652 110.432 4 11 264
1886280N15127 1886 38 WP MM NOT_NAMED 1886-10-14 21:00:00 NR 18.5149 109.881 main 0 0 __________P___ -1 18.5149 109.881 4 10 265
1886280N15127 1886 38 WP MM NOT_NAMED 1886-10-15 00:00:00 NR 18.4658 109.331 main 0 0 __________P___ -1 18.4658 109.331 4 10 265
1886280N15127 1886 38 WP MM NOT_NAMED 1886-10-15 03:00:00 NR 18.4166 108.783 main 11 11 __________P___ -1 18.4166 108.783 4 10 265
1886280N15127 1886 38 WP MM NOT_NAMED 1886-10-15 04:00:00 NR 18.4000 108.600 main 15 __________O___ -1 18.4000 108.600 4 10 264

Digital Typhoon Data and Search

About IBTrACS Database

This database is a web-friendly format of International Best Track Archive for Climate Stewardship (IBTrACS), a global best track data archive curated by NOAA dating back to 1842.

Updated: 2021-10-08